Time;durP1;ratioP1;P1;durP2;ratioP2;P2;SDS_P1;SDS_P2;PMS_P1;PMS_P2;Temp;Humidity;BMP_temperature;BMP_pressure;BME280_temperature;BME280_humidity;BME280_pressure;Samples;Min_cycle;Max_cycle;Signal;HPM_P1;HPM_P2
2022/06/19 00:00:22;;;;;;;;;;;;;;;28.17;45.68;99091.50;2043761;29;20027;-77
2022/06/19 00:01:23;;;;;;;;;;;;;;;28.16;45.71;99090.72;2037596;29;19915;-77
2022/06/19 00:02:23;;;;;;;;;;;;;;;28.16;45.93;99084.41;2037714;29;19961;-76
2022/06/19 00:03:29;;;;;;;;;;;;;;;28.17;45.72;99075.56;2038252;29;20021;-77
2022/06/19 00:04:30;;;;;;;;;;;;;;;28.17;45.73;99085.94;2037658;29;20009;-76
2022/06/19 00:05:30;;;;;;;;;;;;;;;28.15;45.83;99072.50;2037404;29;19914;-77
2022/06/19 00:06:32;;;;;;;;;;;;;;;28.14;45.92;99070.97;2025822;29;19918;-77
2022/06/19 00:07:32;;;;;;;;;;;;;;;28.15;46.06;99072.50;2033937;29;19914;-77
2022/06/19 00:08:33;;;;;;;;;;;;;;;28.14;45.95;99077.31;2032545;29;19955;-77
2022/06/19 00:09:33;;;;;;;;;;;;;;;28.14;45.92;99070.97;2034319;29;19914;-77
2022/06/19 00:10:33;;;;;;;;;;;;;;;28.13;46.00;99084.13;2037349;29;19938;-77
2022/06/19 00:11:34;;;;;;;;;;;;;;;28.13;46.03;99080.59;2035187;29;19910;-77
2022/06/19 00:12:35;;;;;;;;;;;;;;;28.12;46.23;99081.88;2029051;29;19921;-77
2022/06/19 00:13:35;;;;;;;;;;;;;;;28.12;46.23;99084.66;2035510;29;20061;-77
2022/06/19 00:14:35;;;;;;;;;;;;;;;28.12;46.37;99085.41;2036652;29;19914;-77
2022/06/19 00:15:36;;;;;;;;;;;;;;;28.11;46.19;99083.84;2030991;29;19919;-76
2022/06/19 00:16:36;;;;;;;;;;;;;;;28.12;46.39;99082.63;2035759;29;20017;-77
2022/06/19 00:17:36;;;;;;;;;;;;;;;28.10;46.39;99081.56;2036394;28;19950;-77
2022/06/19 00:18:38;;;;;;;;;;;;;;;28.10;46.23;99081.56;2041434;29;19919;-77
2022/06/19 00:19:39;;;;;;;;;;;;;;;28.11;46.27;99080.31;2040281;29;20309;-77
2022/06/19 00:20:39;;;;;;;;;;;;;;;28.11;46.73;99083.09;2040622;29;20286;-77
2022/06/19 00:21:40;;;;;;;;;;;;;;;28.11;46.78;99080.31;2040491;29;20297;-78
2022/06/19 00:22:41;;;;;;;;;;;;;;;28.10;46.76;99081.56;2037732;29;20669;-77
2022/06/19 00:23:41;;;;;;;;;;;;;;;28.10;47.23;99076.75;2037809;29;19937;-77
2022/06/19 00:24:42;;;;;;;;;;;;;;;28.10;46.99;99081.56;2042545;29;20698;-76
2022/06/19 00:25:42;;;;;;;;;;;;;;;28.10;47.21;99076.00;2040508;28;19902;-77
2022/06/19 00:26:42;;;;;;;;;;;;;;;28.09;46.96;99082.81;2041321;29;19906;-77
2022/06/19 00:27:43;;;;;;;;;;;;;;;28.09;46.93;99075.22;2033850;29;19957;-77
2022/06/19 00:28:46;;;;;;;;;;;;;;;28.08;47.24;99081.28;2033489;29;19910;-77
2022/06/19 00:29:46;;;;;;;;;;;;;;;28.08;46.61;99073.69;2032987;29;20385;-77
2022/06/19 00:30:46;;;;;;;;;;;;;;;28.07;46.55;99079.78;2033893;29;20584;-77
2022/06/19 00:31:46;;;;;;;;;;;;;;;28.08;46.75;99081.28;2041699;28;20381;-77
2022/06/19 00:32:47;;;;;;;;;;;;;;;28.08;46.92;99078.50;2043583;29;19921;-77
2022/06/19 00:33:47;;;;;;;;;;;;;;;28.07;46.83;99075.00;2038533;29;19914;-77
2022/06/19 00:34:47;;;;;;;;;;;;;;;28.08;46.87;99078.50;2033722;29;19917;-77
2022/06/19 00:35:48;;;;;;;;;;;;;;;28.07;47.41;99082.56;2037975;29;20274;-77
2022/06/19 00:36:50;;;;;;;;;;;;;;;28.06;47.25;99076.25;2035921;29;19921;-77
2022/06/19 00:37:50;;;;;;;;;;;;;;;28.06;47.12;99070.69;2028805;29;19911;-77
2022/06/19 00:38:50;;;;;;;;;;;;;;;28.06;47.04;99064.34;2038293;29;19911;-76
2022/06/19 00:39:51;;;;;;;;;;;;;;;28.05;47.16;99069.16;2036269;29;19910;-77
2022/06/19 00:40:54;;;;;;;;;;;;;;;28.05;47.24;99071.94;2035878;29;19903;-77
2022/06/19 00:41:55;;;;;;;;;;;;;;;28.05;47.29;99071.16;2034120;29;19917;-77
2022/06/19 00:42:56;;;;;;;;;;;;;;;28.05;47.38;99068.38;2034241;29;19946;-77
2022/06/19 00:44:03;;;;;;;;;;;;;;;28.04;47.22;99067.63;2037461;29;19911;-77
2022/06/19 00:45:03;;;;;;;;;;;;;;;28.04;47.58;99058.50;2036400;29;19911;-77
2022/06/19 00:46:24;;;;;;;;;;;;;;;28.04;47.67;99058.50;2040199;29;19946;-77
2022/06/19 00:47:26;;;;;;;;;;;;;;;28.05;47.56;99060.03;2042094;29;19918;-76
2022/06/19 00:48:37;;;;;;;;;;;;;;;28.04;47.77;99058.50;2043059;28;19921;-77
2022/06/19 00:49:39;;;;;;;;;;;;;;;28.03;47.93;99054.97;2038546;29;20371;-76
2022/06/19 00:50:41;;;;;;;;;;;;;;;28.03;48.01;99046.59;2042426;29;19978;-77
2022/06/19 00:51:42;;;;;;;;;;;;;;;28.02;47.91;99050.66;2040866;29;19922;-76
2022/06/19 00:52:43;;;;;;;;;;;;;;;28.02;48.17;99053.44;2030838;29;19961;-76
2022/06/19 00:53:46;;;;;;;;;;;;;;;28.02;48.22;99049.91;2029484;29;19956;-76
2022/06/19 00:54:46;;;;;;;;;;;;;;;28.01;48.30;99043.56;2036736;29;20006;-77
2022/06/19 00:55:49;;;;;;;;;;;;;;;28.01;48.38;99040.78;2033247;29;19918;-77
2022/06/19 00:56:49;;;;;;;;;;;;;;;28.01;48.52;99042.81;2041799;29;19918;-77
2022/06/19 00:57:52;;;;;;;;;;;;;;;28.01;48.43;99035.22;2042743;28;19935;-76
2022/06/19 00:58:53;;;;;;;;;;;;;;;28.01;48.71;99037.25;2043525;29;19942;-77
2022/06/19 00:59:57;;;;;;;;;;;;;;;28.00;48.70;99032.94;2044416;29;19961;-76
2022/06/19 01:00:58;;;;;;;;;;;;;;;28.00;48.85;99038.50;2042785;29;19914;-77
2022/06/19 01:01:59;;;;;;;;;;;;;;;28.00;48.84;99039.28;2034479;29;20111;-77
2022/06/19 01:03:15;;;;;;;;;;;;;;;28.00;48.90;99044.06;2029463;29;19917;-77
2022/06/19 01:04:22;;;;;;;;;;;;;;;27.99;49.08;99036.97;2028903;29;19911;-77
2022/06/19 01:05:24;;;;;;;;;;;;;;;27.97;48.74;99043.03;2039487;29;20278;-77
2022/06/19 01:06:25;;;;;;;;;;;;;;;27.97;48.62;99033.94;2036348;29;20021;-77
2022/06/19 01:07:26;;;;;;;;;;;;;;;27.97;48.71;99036.72;2027557;29;19911;-77
2022/06/19 01:08:27;;;;;;;;;;;;;;;27.98;48.59;99046.56;2031227;29;19915;-77
2022/06/19 01:09:27;;;;;;;;;;;;;;;27.96;48.99;99046.34;2042888;29;20706;-77
2022/06/19 01:10:28;;;;;;;;;;;;;;;27.95;48.78;99047.59;2038084;29;19911;-77
2022/06/19 01:11:30;;;;;;;;;;;;;;;27.95;48.85;99059.50;2040658;29;20697;-77
2022/06/19 01:12:31;;;;;;;;;;;;;;;27.95;48.79;99051.13;2043537;29;19914;-77
2022/06/19 01:13:32;;;;;;;;;;;;;;;27.95;48.72;99042.78;2040792;29;19917;-77
2022/06/19 01:14:32;;;;;;;;;;;;;;;27.94;48.64;99057.19;2042476;29;19921;-77
2022/06/19 01:15:33;;;;;;;;;;;;;;;27.94;48.62;99054.41;2042313;29;19950;-76
2022/06/19 01:16:34;;;;;;;;;;;;;;;27.94;48.74;99046.06;2035973;29;19925;-76
2022/06/19 01:17:35;;;;;;;;;;;;;;;27.93;48.77;99041.75;2035529;29;19925;-76
2022/06/19 01:18:37;;;;;;;;;;;;;;;27.92;49.58;99043.03;2043668;29;20292;-77
2022/06/19 01:19:41;;;;;;;;;;;;;;;27.92;49.70;99048.59;2041897;29;19914;-77
2022/06/19 01:20:42;;;;;;;;;;;;;;;27.92;49.50;99054.16;2035225;29;20005;-76
2022/06/19 01:21:48;;;;;;;;;;;;;;;27.91;49.35;99047.06;2038668;29;19956;-77
2022/06/19 01:23:04;;;;;;;;;;;;;;;27.92;49.50;99048.59;2042876;29;19911;-77
2022/06/19 01:24:30;;;;;;;;;;;;;;;27.92;49.53;99037.47;2043926;29;19917;-77
2022/06/19 01:25:35;;;;;;;;;;;;;;;27.90;49.55;99045.53;2038928;29;19911;-76
2022/06/19 01:26:38;;;;;;;;;;;;;;;27.90;49.58;99045.53;2039344;29;19993;-76
2022/06/19 01:29:01;;;;;;;;;;;;;;;27.90;50.01;99045.53;2040849;29;19911;-77
2022/06/19 01:30:02;;;;;;;;;;;;;;;27.90;49.83;99037.19;2027945;29;19921;-77
2022/06/19 01:31:04;;;;;;;;;;;;;;;27.88;49.78;99054.38;2033461;29;19915;-77
2022/06/19 01:32:07;;;;;;;;;;;;;;;27.87;50.14;99038.19;2040475;29;19937;-77
2022/06/19 01:33:10;;;;;;;;;;;;;;;27.88;50.14;99039.69;2036419;29;20111;-77
2022/06/19 01:34:32;;;;;;;;;;;;;;;27.88;49.62;99048.06;2042372;29;19965;-77
2022/06/19 01:35:36;;;;;;;;;;;;;;;27.87;50.08;99043.75;2038534;29;19922;-76
2022/06/19 01:36:37;;;;;;;;;;;;;;;27.87;49.77;99040.97;2036665;28;20009;-77
2022/06/19 01:37:38;;;;;;;;;;;;;;;27.87;50.13;99040.97;2036436;29;19921;-77
2022/06/19 01:38:39;;;;;;;;;;;;;;;27.87;50.15;99040.97;2031358;29;19946;-76
2022/06/19 01:39:42;;;;;;;;;;;;;;;27.87;50.30;99035.41;2025569;29;19970;-77
2022/06/19 01:40:45;;;;;;;;;;;;;;;27.87;49.93;99040.97;2034051;29;20392;-77
2022/06/19 01:41:45;;;;;;;;;;;;;;;27.87;49.82;99040.97;2032820;29;19915;-77
2022/06/19 01:42:46;;;;;;;;;;;;;;;27.86;49.87;99043.00;2026246;29;19915;-77
2022/06/19 01:43:47;;;;;;;;;;;;;;;27.86;49.83;99039.47;2030929;29;19958;-77
2022/06/19 01:44:47;;;;;;;;;;;;;;;27.85;49.87;99032.38;2028771;29;19929;-77
2022/06/19 01:45:56;;;;;;;;;;;;;;;27.85;49.97;99032.38;2033179;29;19929;-77
2022/06/19 01:46:56;;;;;;;;;;;;;;;27.84;49.75;99028.81;2038582;29;20682;-77
2022/06/19 01:47:56;;;;;;;;;;;;;;;27.84;49.72;99026.03;2040210;28;20322;-77
2022/06/19 01:48:57;;;;;;;;;;;;;;;27.84;49.90;99028.06;2042402;29;20589;-77
2022/06/19 01:49:58;;;;;;;;;;;;;;;27.84;50.07;99033.63;2029251;29;19930;-77
2022/06/19 01:51:01;;;;;;;;;;;;;;;27.82;49.81;99025.00;2033356;29;20817;-77
2022/06/19 01:52:05;;;;;;;;;;;;;;;27.82;49.97;99022.22;2034729;29;20584;-76
2022/06/19 01:53:11;;;;;;;;;;;;;;;27.82;50.02;99025.00;2041214;29;19942;-76
2022/06/19 01:54:14;;;;;;;;;;;;;;;27.82;50.13;99022.22;2035531;29;19914;-76
2022/06/19 01:55:18;;;;;;;;;;;;;;;27.82;50.27;99022.22;2027170;29;19938;-76
2022/06/19 01:56:18;;;;;;;;;;;;;;;27.82;50.37;99022.22;2033226;29;19923;-76
2022/06/19 01:57:19;;;;;;;;;;;;;;;27.80;50.17;99022.72;2034389;29;20009;-76
2022/06/19 01:58:21;;;;;;;;;;;;;;;27.81;50.39;99015.16;2044270;29;19914;-77
2022/06/19 01:59:22;;;;;;;;;;;;;;;27.80;50.85;99014.38;2041224;28;19997;-76
2022/06/19 02:00:25;;;;;;;;;;;;;;;27.81;50.49;99017.94;2043168;28;19915;-77
2022/06/19 02:01:26;;;;;;;;;;;;;;;27.80;50.91;99013.63;2045611;29;19954;-76
2022/06/19 02:02:28;;;;;;;;;;;;;;;27.80;50.55;99013.63;2044427;28;19914;-77
2022/06/19 02:03:34;;;;;;;;;;;;;;;27.78;50.67;99000.19;2045824;28;19906;-77
2022/06/19 02:04:34;;;;;;;;;;;;;;;27.79;50.62;99012.88;2030432;29;19915;-77
2022/06/19 02:05:36;;;;;;;;;;;;;;;27.79;51.04;99003.75;2036950;29;19917;-77
2022/06/19 02:06:41;;;;;;;;;;;;;;;27.78;50.78;99007.78;2045067;29;19914;-77
2022/06/19 02:07:41;;;;;;;;;;;;;;;27.78;50.93;98999.44;2045625;28;20029;-78
2022/06/19 02:08:43;;;;;;;;;;;;;;;27.77;50.88;99004.25;2040095;29;19918;-78
2022/06/19 02:09:44;;;;;;;;;;;;;;;27.77;50.64;99009.03;2037800;29;19911;-76
2022/06/19 02:10:45;;;;;;;;;;;;;;;27.76;50.57;98997.16;2042034;29;20001;-78
2022/06/19 02:11:45;;;;;;;;;;;;;;;27.76;50.73;99007.53;2033369;29;20269;-78
2022/06/19 02:12:45;;;;;;;;;;;;;;;27.75;50.77;99006.78;2034858;29;19914;-78
2022/06/19 02:13:46;;;;;;;;;;;;;;;27.76;50.81;99004.75;2042358;29;19910;-78
2022/06/19 02:14:47;;;;;;;;;;;;;;;27.76;50.61;98999.19;2040686;29;19921;-78
2022/06/19 02:15:48;;;;;;;;;;;;;;;27.74;50.92;98994.13;2039543;29;19924;-78
2022/06/19 02:16:49;;;;;;;;;;;;;;;27.73;50.90;98990.56;2041870;29;19922;-78
2022/06/19 02:17:51;;;;;;;;;;;;;;;27.72;51.60;98994.59;2044669;29;19981;-78
2022/06/19 02:18:53;;;;;;;;;;;;;;;27.72;50.80;98991.81;2044761;29;19911;-77
2022/06/19 02:19:53;;;;;;;;;;;;;;;27.72;50.76;98986.25;2044354;29;19922;-78
2022/06/19 02:20:54;;;;;;;;;;;;;;;27.72;50.83;98983.47;2046696;29;19917;-77
2022/06/19 02:21:55;;;;;;;;;;;;;;;27.73;51.02;98981.47;2037968;29;19914;-77
2022/06/19 02:22:57;;;;;;;;;;;;;;;27.72;50.75;98975.13;2037663;29;19981;-77
2022/06/19 02:23:57;;;;;;;;;;;;;;;27.71;50.79;98978.41;2043671;29;20004;-77
2022/06/19 02:24:58;;;;;;;;;;;;;;;27.71;50.81;98973.59;2043832;29;19918;-78
2022/06/19 02:25:59;;;;;;;;;;;;;;;27.70;50.91;98977.69;2037194;29;20522;-77
2022/06/19 02:27:00;;;;;;;;;;;;;;;27.70;51.13;98980.47;2028222;29;19962;-77
2022/06/19 02:28:03;;;;;;;;;;;;;;;27.69;51.12;98978.94;2036922;29;20700;-76
2022/06/19 02:29:06;;;;;;;;;;;;;;;27.68;51.35;98982.97;2043646;28;19918;-77
2022/06/19 02:30:08;;;;;;;;;;;;;;;27.68;51.24;98977.41;2036208;29;19910;-78
2022/06/19 02:31:08;;;;;;;;;;;;;;;27.68;51.52;98982.97;2041590;29;19915;-77
2022/06/19 02:32:17;;;;;;;;;;;;;;;27.67;51.95;98977.88;2038511;29;20559;-77
2022/06/19 02:33:18;;;;;;;;;;;;;;;27.67;51.54;98973.09;2039437;29;20005;-76
2022/06/19 02:34:22;;;;;;;;;;;;;;;27.67;51.02;98970.31;2044790;29;19914;-77
2022/06/19 02:35:23;;;;;;;;;;;;;;;27.65;51.22;98975.59;2045538;29;20301;-77
2022/06/19 02:36:40;;;;;;;;;;;;;;;27.67;51.18;98970.31;2034730;29;19992;-77
2022/06/19 02:37:42;;;;;;;;;;;;;;;27.66;51.29;98974.34;2024789;29;20302;-77
2022/06/19 02:38:42;;;;;;;;;;;;;;;27.65;51.40;98970.03;2032958;29;19950;-77
2022/06/19 02:40:03;;;;;;;;;;;;;;;27.65;51.17;98975.59;2040531;29;19921;-78
2022/06/19 02:41:15;;;;;;;;;;;;;;;27.66;50.91;98974.34;2039980;29;20102;-77
2022/06/19 02:42:24;;;;;;;;;;;;;;;27.65;51.27;98972.09;2038273;29;19946;-77
2022/06/19 02:43:28;;;;;;;;;;;;;;;27.64;51.65;98968.53;2037399;29;19914;-78
2022/06/19 02:44:51;;;;;;;;;;;;;;;27.64;51.25;98962.22;2046193;28;20389;-77
2022/06/19 02:45:51;;;;;;;;;;;;;;;27.63;51.43;98961.44;2034984;29;19910;-78
2022/06/19 02:46:51;;;;;;;;;;;;;;;27.63;51.95;98953.09;2036765;29;19914;-79
2022/06/19 02:47:53;;;;;;;;;;;;;;;27.62;51.69;98954.34;2032329;29;19915;-78
2022/06/19 02:48:53;;;;;;;;;;;;;;;27.63;51.73;98958.66;2034067;29;19911;-78
2022/06/19 02:49:53;;;;;;;;;;;;;;;27.62;51.51;98951.56;2043100;29;19917;-78
2022/06/19 02:50:54;;;;;;;;;;;;;;;27.63;51.90;98964.22;2042571;28;20281;-77
2022/06/19 02:51:55;;;;;;;;;;;;;;;27.62;51.50;98965.50;2034049;29;19918;-78
2022/06/19 02:52:55;;;;;;;;;;;;;;;27.62;52.19;98965.50;2034443;29;19921;-77
2022/06/19 02:53:58;;;;;;;;;;;;;;;27.62;52.23;98959.16;2033142;29;20006;-77
2022/06/19 02:54:58;;;;;;;;;;;;;;;27.62;52.03;98954.34;2037336;29;19915;-77
2022/06/19 02:55:58;;;;;;;;;;;;;;;27.62;52.01;98953.59;2041268;28;19957;-78
2022/06/19 02:56:59;;;;;;;;;;;;;;;27.61;52.05;98963.97;2043344;29;19914;-77
2022/06/19 02:57:59;;;;;;;;;;;;;;;27.61;52.63;98954.84;2044800;28;19914;-77
2022/06/19 02:59:00;;;;;;;;;;;;;;;27.60;52.44;98956.88;2044798;29;19958;-78
2022/06/19 03:00:00;;;;;;;;;;;;;;;27.60;52.48;98951.31;2043523;29;19952;-78
2022/06/19 03:01:01;;;;;;;;;;;;;;;27.58;52.00;98951.06;2036752;29;19962;-78
2022/06/19 03:02:01;;;;;;;;;;;;;;;27.59;52.33;98949.81;2034908;29;19919;-78
2022/06/19 03:03:07;;;;;;;;;;;;;;;27.57;52.07;98943.97;2035632;29;19914;-78
2022/06/19 03:04:18;;;;;;;;;;;;;;;27.58;51.85;98948.28;2042806;29;19950;-78
2022/06/19 03:05:21;;;;;;;;;;;;;;;27.57;51.87;98946.75;2041031;29;19911;-77
2022/06/19 03:06:21;;;;;;;;;;;;;;;27.57;51.75;98941.19;2040692;29;19945;-78
2022/06/19 03:07:23;;;;;;;;;;;;;;;27.56;52.09;98934.09;2042513;29;19920;-78
2022/06/19 03:08:23;;;;;;;;;;;;;;;27.56;52.86;98945.22;2044940;29;19918;-77
2022/06/19 03:09:23;;;;;;;;;;;;;;;27.55;52.35;98943.69;2042084;29;20240;-78
2022/06/19 03:10:24;;;;;;;;;;;;;;;27.55;52.26;98940.16;2038543;29;20360;-78
2022/06/19 03:11:24;;;;;;;;;;;;;;;27.56;51.88;98938.91;2033569;29;19911;-78
2022/06/19 03:12:25;;;;;;;;;;;;;;;27.54;52.44;98931.06;2036279;29;19958;-77
2022/06/19 03:13:28;;;;;;;;;;;;;;;27.54;52.52;98924.75;2045168;29;19910;-77
2022/06/19 03:14:28;;;;;;;;;;;;;;;27.54;51.85;98925.50;2034157;29;19914;-78
2022/06/19 03:15:29;;;;;;;;;;;;;;;27.53;51.62;98921.19;2028351;29;19950;-78
2022/06/19 03:16:29;;;;;;;;;;;;;;;27.53;51.80;98918.44;2039823;28;19965;-77
2022/06/19 03:17:29;;;;;;;;;;;;;;;27.54;51.70;98913.63;2032321;29;19919;-77
2022/06/19 03:18:30;;;;;;;;;;;;;;;27.52;51.55;98911.34;2036227;29;19914;-78
2022/06/19 03:19:30;;;;;;;;;;;;;;;27.53;51.40;98914.88;2045880;28;20382;-77
2022/06/19 03:20:31;;;;;;;;;;;;;;;27.52;51.53;98910.56;2044134;29;20299;-78
2022/06/19 03:21:31;;;;;;;;;;;;;;;27.52;51.44;98908.56;2040165;29;19915;-77
2022/06/19 03:22:31;;;;;;;;;;;;;;;27.52;51.52;98905.78;2041060;29;19915;-76
2022/06/19 03:23:31;;;;;;;;;;;;;;;27.52;51.59;98900.22;2040354;29;19919;-78
2022/06/19 03:24:32;;;;;;;;;;;;;;;27.52;51.93;98902.22;2045545;29;19966;-77
2022/06/19 03:25:32;;;;;;;;;;;;;;;27.50;51.95;98897.16;2036750;29;19978;-77
2022/06/19 03:26:32;;;;;;;;;;;;;;;27.50;51.69;98891.59;2037272;29;20355;-77
2022/06/19 03:27:33;;;;;;;;;;;;;;;27.49;51.72;98895.63;2043695;29;19911;-77
2022/06/19 03:28:33;;;;;;;;;;;;;;;27.50;51.37;98896.41;2034036;29;19925;-78
2022/06/19 03:29:33;;;;;;;;;;;;;;;27.49;51.11;98892.84;2022528;29;19930;-78
2022/06/19 03:30:34;;;;;;;;;;;;;;;27.49;51.17;98887.28;2035606;29;19918;-78
2022/06/19 03:31:34;;;;;;;;;;;;;;;27.49;51.30;98886.53;2032916;29;19914;-78
2022/06/19 03:32:34;;;;;;;;;;;;;;;27.49;51.54;98887.28;2037272;29;19910;-77
2022/06/19 03:33:35;;;;;;;;;;;;;;;27.48;51.15;98888.53;2036919;29;19966;-76
2022/06/19 03:34:35;;;;;;;;;;;;;;;27.48;51.21;98888.53;2036252;29;19919;-77
2022/06/19 03:35:35;;;;;;;;;;;;;;;27.48;51.14;98890.56;2037186;29;19910;-78
2022/06/19 03:36:36;;;;;;;;;;;;;;;27.47;51.27;98889.03;2031804;29;19987;-77
2022/06/19 03:37:36;;;;;;;;;;;;;;;27.48;51.10;98891.31;2037955;29;19910;-78
2022/06/19 03:38:36;;;;;;;;;;;;;;;27.48;51.16;98894.09;2038972;29;19914;-78
2022/06/19 03:39:37;;;;;;;;;;;;;;;27.48;51.21;98887.78;2039153;29;20376;-78
2022/06/19 03:40:37;;;;;;;;;;;;;;;27.48;51.60;98887.78;2038402;29;19958;-78
2022/06/19 03:41:38;;;;;;;;;;;;;;;27.46;51.38;98888.28;2040785;29;19914;-77
2022/06/19 03:42:38;;;;;;;;;;;;;;;27.47;51.29;98892.56;2040152;29;19998;-78
2022/06/19 03:43:39;;;;;;;;;;;;;;;27.46;50.94;98884.72;2037877;29;19910;-77
2022/06/19 03:44:39;;;;;;;;;;;;;;;27.45;50.94;98888.75;2041292;29;19911;-77
2022/06/19 03:45:39;;;;;;;;;;;;;;;27.44;51.62;98885.25;2044963;29;19903;-77
2022/06/19 03:46:40;;;;;;;;;;;;;;;27.43;51.94;98889.28;2039556;29;19918;-78
2022/06/19 03:47:40;;;;;;;;;;;;;;;27.44;50.95;98885.25;2041818;29;20141;-77
2022/06/19 03:48:51;;;;;;;;;;;;;;;27.44;51.12;98899.16;2039761;29;19910;-78
2022/06/19 03:49:51;;;;;;;;;;;;;;;27.44;51.28;98899.16;2039279;29;19915;-77
2022/06/19 03:50:52;;;;;;;;;;;;;;;27.43;51.03;98897.63;2043083;29;19918;-78
2022/06/19 03:51:52;;;;;;;;;;;;;;;27.43;51.04;98899.63;2042201;29;20336;-79
2022/06/19 03:52:53;;;;;;;;;;;;;;;27.42;51.17;98901.66;2026552;29;20145;-78
2022/06/19 03:53:54;;;;;;;;;;;;;;;27.42;51.55;98896.09;2030715;29;20496;-77
2022/06/19 03:54:54;;;;;;;;;;;;;;;27.42;51.21;98896.09;2035795;29;20678;-78
2022/06/19 03:55:55;;;;;;;;;;;;;;;27.43;51.12;98894.84;2038018;29;19989;-77
2022/06/19 03:56:55;;;;;;;;;;;;;;;27.43;51.32;98891.28;2040461;29;19923;-77
2022/06/19 03:57:55;;;;;;;;;;;;;;;27.41;51.54;98897.34;2036241;29;19914;-77
2022/06/19 03:58:56;;;;;;;;;;;;;;;27.40;51.37;98884.69;2036388;29;19906;-77
2022/06/19 03:59:56;;;;;;;;;;;;;;;27.41;51.46;98893.81;2042901;29;19910;-77
2022/06/19 04:00:56;;;;;;;;;;;;;;;27.41;50.91;98889.00;2043308;29;19914;-77
2022/06/19 04:01:57;;;;;;;;;;;;;;;27.40;51.21;98890.25;2041493;29;20709;-77
2022/06/19 04:02:58;;;;;;;;;;;;;;;27.40;51.17;98886.72;2029899;29;20691;-77
2022/06/19 04:03:58;;;;;;;;;;;;;;;27.39;52.33;98885.97;2030225;29;19933;-77
2022/06/19 04:04:59;;;;;;;;;;;;;;;27.39;52.52;98880.41;2039073;29;19953;-78
2022/06/19 04:05:59;;;;;;;;;;;;;;;27.39;52.37;98877.63;2041638;29;19910;-76
2022/06/19 04:06:59;;;;;;;;;;;;;;;27.39;52.41;98877.63;2042590;29;19911;-77
2022/06/19 04:08:00;;;;;;;;;;;;;;;27.38;52.41;98876.13;2042567;28;19910;-77
2022/06/19 04:09:01;;;;;;;;;;;;;;;27.38;52.38;98867.78;2044556;29;19917;-77
2022/06/19 04:10:02;;;;;;;;;;;;;;;27.38;52.89;98873.34;2043506;29;19984;-76
2022/06/19 04:11:04;;;;;;;;;;;;;;;27.37;52.99;98876.59;2044656;28;20007;-76
2022/06/19 04:12:05;;;;;;;;;;;;;;;27.36;52.10;98867.50;2045149;29;20373;-77
2022/06/19 04:13:05;;;;;;;;;;;;;;;27.37;52.35;98873.81;2036142;29;20340;-77
2022/06/19 04:14:06;;;;;;;;;;;;;;;27.36;52.87;98875.84;2035923;29;19934;-77
2022/06/19 04:15:10;;;;;;;;;;;;;;;27.36;52.20;98870.28;2037232;29;19911;-77
2022/06/19 04:16:19;;;;;;;;;;;;;;;27.36;52.88;98870.28;2036425;29;19917;-77
2022/06/19 04:17:19;;;;;;;;;;;;;;;27.36;53.36;98878.63;2035573;29;19917;-77
2022/06/19 04:18:19;;;;;;;;;;;;;;;27.35;53.65;98879.88;2036556;29;19917;-77
2022/06/19 04:19:20;;;;;;;;;;;;;;;27.35;54.29;98879.13;2032607;29;19997;-77
2022/06/19 04:20:20;;;;;;;;;;;;;;;27.34;54.01;98877.63;2035409;29;20351;-77
2022/06/19 04:21:22;;;;;;;;;;;;;;;27.34;53.71;98878.34;2036922;29;19911;-77
2022/06/19 04:22:22;;;;;;;;;;;;;;;27.34;53.47;98878.34;2034964;29;19911;-77
2022/06/19 04:23:23;;;;;;;;;;;;;;;27.33;53.58;98885.19;2035656;29;19915;-77
2022/06/19 04:24:24;;;;;;;;;;;;;;;27.31;54.71;98871.03;2043222;29;20409;-78
2022/06/19 04:25:25;;;;;;;;;;;;;;;27.33;53.70;98876.09;2035071;28;20301;-78
2022/06/19 04:26:27;;;;;;;;;;;;;;;27.31;54.32;98865.47;2035733;29;20327;-77
2022/06/19 04:27:28;;;;;;;;;;;;;;;27.32;53.07;98864.22;2043076;29;19917;-77
2022/06/19 04:28:30;;;;;;;;;;;;;;;27.31;53.83;98868.25;2041972;29;20373;-77
2022/06/19 04:29:31;;;;;;;;;;;;;;;27.30;54.08;98867.47;2042624;29;19910;-77
2022/06/19 04:30:31;;;;;;;;;;;;;;;27.30;53.48;98867.47;2041799;29;19921;-77
2022/06/19 04:31:32;;;;;;;;;;;;;;;27.30;54.23;98867.47;2036117;29;20014;-77
2022/06/19 04:32:32;;;;;;;;;;;;;;;27.30;53.88;98875.06;2042620;29;19911;-76
2022/06/19 04:33:37;;;;;;;;;;;;;;;27.30;53.87;98875.81;2028054;29;19946;-77
2022/06/19 04:34:37;;;;;;;;;;;;;;;27.29;53.69;98877.06;2034668;29;19918;-77
2022/06/19 04:35:37;;;;;;;;;;;;;;;27.30;53.90;98886.16;2034760;29;19922;-77
2022/06/19 04:36:38;;;;;;;;;;;;;;;27.29;53.62;98890.19;2035991;29;20254;-77
2022/06/19 04:37:43;;;;;;;;;;;;;;;27.29;54.35;98893.75;2028002;29;19981;-78
2022/06/19 04:38:45;;;;;;;;;;;;;;;27.29;54.12;98893.00;2035091;29;20728;-77
2022/06/19 04:39:45;;;;;;;;;;;;;;;27.28;53.68;98891.50;2038620;29;19906;-77
2022/06/19 04:40:46;;;;;;;;;;;;;;;27.29;53.60;98898.53;2038180;29;19910;-77
2022/06/19 04:41:46;;;;;;;;;;;;;;;27.28;53.56;98894.28;2038035;29;19919;-78
2022/06/19 04:42:46;;;;;;;;;;;;;;;27.28;53.64;98897.03;2040438;29;19926;-77
2022/06/19 04:43:47;;;;;;;;;;;;;;;27.27;53.82;98884.41;2042700;29;20045;-77
2022/06/19 04:44:48;;;;;;;;;;;;;;;27.27;53.04;98884.41;2040653;29;20466;-77
2022/06/19 04:45:48;;;;;;;;;;;;;;;27.26;53.79;98891.22;2033663;29;19969;-77
2022/06/19 04:46:49;;;;;;;;;;;;;;;27.26;52.46;98877.31;2034400;29;19911;-76
2022/06/19 04:47:49;;;;;;;;;;;;;;;27.25;51.91;98871.00;2034172;29;20695;-80
2022/06/19 04:48:49;;;;;;;;;;;;;;;27.26;52.39;98868.97;2042117;29;19918;-81
2022/06/19 04:49:50;;;;;;;;;;;;;;;27.25;52.40;98870.22;2042691;29;19913;-81
2022/06/19 04:50:52;;;;;;;;;;;;;;;27.25;51.85;98861.88;2043215;29;19927;-81
2022/06/19 04:51:52;;;;;;;;;;;;;;;27.25;52.61;98859.09;2042345;29;19911;-81
2022/06/19 04:52:52;;;;;;;;;;;;;;;27.25;53.10;98862.66;2051224;29;19946;-80
2022/06/19 04:53:53;;;;;;;;;;;;;;;27.25;52.91;98861.88;2050884;29;20401;-79
2022/06/19 04:54:53;;;;;;;;;;;;;;;27.25;52.68;98861.88;2050882;29;19938;-81
2022/06/19 04:55:54;;;;;;;;;;;;;;;27.24;52.97;98863.91;2049096;29;19911;-81
2022/06/19 04:56:54;;;;;;;;;;;;;;;27.23;52.43;98865.16;2048903;29;19957;-82
2022/06/19 04:57:59;;;;;;;;;;;;;;;27.24;52.40;98868.69;2048618;29;19911;-81
2022/06/19 04:58:59;;;;;;;;;;;;;;;27.25;53.39;98864.66;2048001;29;19918;-81
2022/06/19 04:59:59;;;;;;;;;;;;;;;27.24;53.63;98860.38;2047131;29;19946;-81
2022/06/19 05:01:05;;;;;;;;;;;;;;;27.24;53.97;98857.59;2040693;29;19958;-81
2022/06/19 05:02:05;;;;;;;;;;;;;;;27.22;53.76;98862.91;2045753;29;20416;-81
2022/06/19 05:03:06;;;;;;;;;;;;;;;27.22;54.75;98860.13;2040018;29;20728;-81
2022/06/19 05:04:08;;;;;;;;;;;;;;;27.22;54.19;98860.13;2040114;29;19907;-81
2022/06/19 05:05:13;;;;;;;;;;;;;;;27.22;53.85;98854.56;2040352;29;20642;-81
2022/06/19 05:06:14;;;;;;;;;;;;;;;27.22;53.87;98865.69;2043006;28;19922;-80
2022/06/19 05:07:14;;;;;;;;;;;;;;;27.21;53.63;98864.16;2048851;29;19910;-81
2022/06/19 05:08:14;;;;;;;;;;;;;;;27.21;53.56;98861.38;2048749;29;19910;-81
2022/06/19 05:09:15;;;;;;;;;;;;;;;27.21;53.32;98858.59;2048799;29;19917;-81
2022/06/19 05:10:15;;;;;;;;;;;;;;;27.20;53.56;98855.06;2039896;29;20160;-81
2022/06/19 05:11:16;;;;;;;;;;;;;;;27.19;53.57;98853.53;2040399;29;20001;-81
2022/06/19 05:12:16;;;;;;;;;;;;;;;27.20;52.75;98854.28;2050932;29;19933;-81
2022/06/19 05:13:18;;;;;;;;;;;;;;;27.19;52.70;98859.09;2042394;29;19935;-80
2022/06/19 05:14:18;;;;;;;;;;;;;;;27.19;52.37;98856.31;2042069;29;19942;-80
2022/06/19 05:15:19;;;;;;;;;;;;;;;27.19;53.03;98852.75;2049508;29;19910;-80
2022/06/19 05:16:21;;;;;;;;;;;;;;;27.19;53.67;98861.09;2042250;29;19911;-81
2022/06/19 05:17:21;;;;;;;;;;;;;;;27.19;54.12;98856.31;2042321;29;19991;-80
2022/06/19 05:18:21;;;;;;;;;;;;;;;27.18;54.29;98846.44;2050919;29;19910;-81
2022/06/19 05:19:21;;;;;;;;;;;;;;;27.19;52.95;98855.53;2051030;29;19910;-81
2022/06/19 05:20:22;;;;;;;;;;;;;;;27.17;52.66;98860.84;2041998;29;20364;-80
2022/06/19 05:21:23;;;;;;;;;;;;;;;27.18;53.44;98859.56;2042101;29;20369;-80
2022/06/19 05:22:23;;;;;;;;;;;;;;;27.16;54.07;98864.88;2042056;29;20301;-80
2022/06/19 05:23:24;;;;;;;;;;;;;;;27.16;54.09;98856.53;2042351;29;19946;-81